Time;durP1;ratioP1;P1;durP2;ratioP2;P2;SDS_P1;SDS_P2;PMS_P1;PMS_P2;Temp;Humidity;BMP_temperature;BMP_pressure;BME280_temperature;BME280_humidity;BME280_pressure;Samples;Min_cycle;Max_cycle;Signal;HPM_P1;HPM_P2
2023/07/03 00:01:58;;;;;;;;;;;;;;;22.56;28.75;97329.75;4981894;28;726;-74
2023/07/03 00:04:23;;;;;;;;;;;;;;;22.49;28.95;97324.41;4960881;28;955;-74
2023/07/03 00:06:49;;;;;;;;;;;;;;;22.55;28.80;97328.19;4961273;28;835;-74
2023/07/03 00:09:14;;;;;;;;;;;;;;;22.53;28.84;97327.84;4960766;28;1098;-74
2023/07/03 00:11:40;;;;;;;;;;;;;;;22.49;29.08;97318.72;4977389;28;783;-74
2023/07/03 00:14:05;;;;;;;;;;;;;;;22.41;29.29;97317.44;4960451;28;879;-75
2023/07/03 00:16:31;;;;;;;;;;;;;;;22.61;28.96;97314.97;4961009;28;795;-74
2023/07/03 00:18:56;;;;;;;;;;;;;;;22.66;28.80;97305.84;4977186;28;1914;-74
2023/07/03 00:21:22;;;;;;;;;;;;;;;22.39;29.25;97314.28;4976994;28;792;-74
2023/07/03 00:23:47;;;;;;;;;;;;;;;22.63;29.06;97318.91;4976491;28;877;-74
2023/07/03 00:26:13;;;;;;;;;;;;;;;22.71;28.74;97316.56;4977035;28;878;-75
2023/07/03 00:28:38;;;;;;;;;;;;;;;22.64;28.85;97319.72;4976675;28;932;-74
2023/07/03 00:31:04;;;;;;;;;;;;;;;22.68;28.86;97331.69;4961010;28;1424;-74
2023/07/03 00:33:30;;;;;;;;;;;;;;;22.58;28.89;97325.19;4960185;28;1095;-74
2023/07/03 00:35:55;;;;;;;;;;;;;;;22.49;28.91;97330.84;4976089;28;943;-74
2023/07/03 00:38:21;;;;;;;;;;;;;;;22.32;29.13;97335.97;4964685;28;1906;-74
2023/07/03 00:40:46;;;;;;;;;;;;;;;22.62;28.81;97340.00;4948900;28;1218;-74
2023/07/03 00:43:13;;;;;;;;;;;;;;;22.66;28.66;97339.09;4965048;28;1132;-74
2023/07/03 00:45:38;;;;;;;;;;;;;;;22.37;29.18;97334.56;4998244;28;759;-74
2023/07/03 00:48:04;;;;;;;;;;;;;;;22.52;28.96;97329.91;4980847;28;1112;-75
2023/07/03 00:50:30;;;;;;;;;;;;;;;22.41;29.24;97328.78;4980902;28;768;-75
2023/07/03 00:52:57;;;;;;;;;;;;;;;22.59;28.92;97329.63;4980806;28;751;-74
2023/07/03 00:55:22;;;;;;;;;;;;;;;22.61;28.90;97332.78;4980798;28;685;-74
2023/07/03 00:57:48;;;;;;;;;;;;;;;22.59;28.87;97335.31;4997800;28;1073;-75
2023/07/03 01:00:14;;;;;;;;;;;;;;;22.51;28.78;97325.50;4941191;29;1903;-75
2023/07/03 01:02:42;;;;;;;;;;;;;;;22.62;28.75;97316.53;4941340;29;949;-74
2023/07/03 01:05:19;;;;;;;;;;;;;;;22.38;28.96;97324.03;4925482;29;1247;-74
2023/07/03 01:07:45;;;;;;;;;;;;;;;22.49;28.98;97324.41;4940995;29;923;-74
2023/07/03 01:10:28;;;;;;;;;;;;;;;22.55;28.93;97314.00;4925071;29;1286;-74
2023/07/03 01:12:55;;;;;;;;;;;;;;;22.46;28.90;97317.59;4925559;29;1196;-74
2023/07/03 01:15:25;;;;;;;;;;;;;;;22.45;29.07;97309.56;4941053;29;1051;-74
2023/07/03 01:17:50;;;;;;;;;;;;;;;22.71;28.63;97310.13;4909609;29;1207;-74
2023/07/03 01:20:17;;;;;;;;;;;;;;;22.64;29.13;97308.38;4940716;29;1986;-74
2023/07/03 01:22:42;;;;;;;;;;;;;;;22.62;29.18;97305.19;4925302;29;881;-74
2023/07/03 01:25:09;;;;;;;;;;;;;;;22.75;29.02;97314.38;4956670;28;1164;-73
2023/07/03 01:27:35;;;;;;;;;;;;;;;22.75;29.00;97310.75;4943832;29;893;-74
2023/07/03 01:30:00;;;;;;;;;;;;;;;22.64;29.50;97308.38;4928793;28;1256;-74
2023/07/03 01:32:28;;;;;;;;;;;;;;;22.73;29.35;97310.44;4983493;28;870;-75
2023/07/03 01:34:55;;;;;;;;;;;;;;;22.56;29.75;97309.91;4952226;28;1171;-74
2023/07/03 01:37:22;;;;;;;;;;;;;;;22.73;29.42;97311.22;4968466;28;1136;-74
2023/07/03 01:39:49;;;;;;;;;;;;;;;22.67;29.88;97321.59;4928890;29;1980;-75
2023/07/03 01:42:14;;;;;;;;;;;;;;;22.64;29.94;97319.72;4944248;29;901;-75
2023/07/03 01:44:40;;;;;;;;;;;;;;;22.64;29.62;97319.72;4960392;29;937;-74
2023/07/03 01:47:09;;;;;;;;;;;;;;;22.68;29.73;97320.34;4928738;29;1235;-74
2023/07/03 01:49:35;;;;;;;;;;;;;;;22.61;29.80;97331.97;4944128;29;799;-74
2023/07/03 01:52:03;;;;;;;;;;;;;;;22.56;29.90;97316.38;4960338;29;1097;-75
2023/07/03 01:54:31;;;;;;;;;;;;;;;22.64;29.86;97325.38;4944211;29;1163;-74
2023/07/03 01:56:57;;;;;;;;;;;;;;;22.76;29.75;97327.31;4944622;29;918;-74
2023/07/03 01:59:24;;;;;;;;;;;;;;;22.73;29.76;97333.91;4944259;29;1922;-74
2023/07/03 02:02:00;;;;;;;;;;;;;;;22.62;30.23;97333.56;4928367;29;1059;-74
2023/07/03 02:04:27;;;;;;;;;;;;;;;22.71;30.04;97330.75;4905486;29;1261;-73
2023/07/03 02:06:53;;;;;;;;;;;;;;;22.72;29.96;97332.31;4890385;29;1142;-74
2023/07/03 02:09:18;;;;;;;;;;;;;;;22.74;29.84;97329.00;4890555;29;1138;-74
2023/07/03 02:11:47;;;;;;;;;;;;;;;22.75;29.72;97337.06;4906322;29;1316;-74
2023/07/03 02:14:13;;;;;;;;;;;;;;;22.48;30.08;97334.13;4909258;29;1256;-74
2023/07/03 02:16:41;;;;;;;;;;;;;;;22.60;29.98;97330.41;4940933;29;894;-74
2023/07/03 02:19:07;;;;;;;;;;;;;;;22.80;29.83;97341.34;4924907;29;1922;-74
2023/07/03 02:21:35;;;;;;;;;;;;;;;22.72;29.69;97340.84;4925018;29;1199;-73
2023/07/03 02:24:01;;;;;;;;;;;;;;;22.70;29.99;97351.88;4909504;29;1273;-74
2023/07/03 02:26:27;;;;;;;;;;;;;;;22.58;30.09;97344.25;4924812;29;997;-74
2023/07/03 02:28:53;;;;;;;;;;;;;;;22.59;30.25;97354.38;4908888;29;1131;-75
2023/07/03 02:31:18;;;;;;;;;;;;;;;22.23;30.84;97347.28;4908802;29;1118;-74
2023/07/03 02:33:44;;;;;;;;;;;;;;;22.57;30.31;97351.19;4908993;29;1067;-75
2023/07/03 02:36:09;;;;;;;;;;;;;;;22.68;29.87;97354.38;4959894;28;1240;-75
2023/07/03 02:38:35;;;;;;;;;;;;;;;22.42;30.38;97358.69;4982065;28;1989;-74
2023/07/03 02:41:02;;;;;;;;;;;;;;;22.84;30.04;97361.81;5000508;28;775;-75
2023/07/03 02:43:30;;;;;;;;;;;;;;;22.88;29.76;97363.28;4951348;28;1339;-75
2023/07/03 02:46:04;;;;;;;;;;;;;;;22.95;29.77;97372.75;4967474;28;1069;-74
2023/07/03 02:48:29;;;;;;;;;;;;;;;22.70;30.24;97366.06;4966286;28;870;-74
2023/07/03 02:50:55;;;;;;;;;;;;;;;22.36;30.06;97333.78;4983302;28;1251;-74
2023/07/03 02:53:21;;;;;;;;;;;;;;;22.73;29.92;97367.94;4966805;28;736;-74
2023/07/03 02:55:50;;;;;;;;;;;;;;;22.72;29.97;97366.34;4924232;29;1229;-74
2023/07/03 02:58:17;;;;;;;;;;;;;;;22.62;30.08;97373.25;4905215;29;1907;-74
2023/07/03 03:00:42;;;;;;;;;;;;;;;22.75;30.06;97367.47;4905819;29;1388;-74
2023/07/03 03:03:08;;;;;;;;;;;;;;;22.74;29.98;97363.88;4874336;29;1141;-74
2023/07/03 03:05:33;;;;;;;;;;;;;;;23.00;29.52;97374.97;4921146;29;911;-74
2023/07/03 03:07:59;;;;;;;;;;;;;;;22.85;29.76;97377.59;4873727;29;1217;-73
2023/07/03 03:10:25;;;;;;;;;;;;;;;22.85;29.88;97378.38;4905025;29;1177;-74
2023/07/03 03:12:50;;;;;;;;;;;;;;;22.80;29.81;97378.22;4905454;29;1136;-75
2023/07/03 03:15:17;;;;;;;;;;;;;;;22.96;29.65;97374.34;4904685;29;776;-75
2023/07/03 03:17:43;;;;;;;;;;;;;;;22.95;29.64;97372.75;4904967;29;729;-74
2023/07/03 03:20:10;;;;;;;;;;;;;;;22.56;30.29;97381.59;4923836;29;1911;-74
2023/07/03 03:22:35;;;;;;;;;;;;;;;22.62;30.24;97384.59;4886130;29;1319;-74
2023/07/03 03:25:01;;;;;;;;;;;;;;;22.53;30.64;97370.38;4901537;29;1152;-74
2023/07/03 03:27:26;;;;;;;;;;;;;;;22.69;30.31;97386.34;4916446;29;1180;-74
2023/07/03 03:29:52;;;;;;;;;;;;;;;22.56;30.40;97380.81;4904575;29;1126;-74
2023/07/03 03:32:18;;;;;;;;;;;;;;;22.70;30.20;97374.56;4904747;29;909;-75
2023/07/03 03:34:44;;;;;;;;;;;;;;;22.63;30.10;97386.97;4904433;29;1201;-74
2023/07/03 03:37:09;;;;;;;;;;;;;;;22.63;30.34;97386.16;4939509;29;1109;-74
2023/07/03 03:39:36;;;;;;;;;;;;;;;22.60;30.07;97387.13;4923128;29;1972;-74
2023/07/03 03:42:04;;;;;;;;;;;;;;;22.80;30.23;97381.06;4939222;29;1188;-74
2023/07/03 03:44:29;;;;;;;;;;;;;;;22.63;30.36;97389.00;4938933;29;1052;-74
2023/07/03 03:46:55;;;;;;;;;;;;;;;22.68;30.50;97391.22;4939044;29;1145;-73
2023/07/03 03:49:21;;;;;;;;;;;;;;;22.69;30.41;97383.50;4918229;29;1165;-74
2023/07/03 03:51:47;;;;;;;;;;;;;;;22.84;30.15;97379.63;4888261;29;1074;-74
2023/07/03 03:54:14;;;;;;;;;;;;;;;22.80;30.15;97372.53;4919139;29;1195;-75
2023/07/03 03:56:39;;;;;;;;;;;;;;;22.81;30.57;97382.63;4873002;29;1145;-75
2023/07/03 03:59:05;;;;;;;;;;;;;;;22.87;30.16;97378.69;4883986;29;1902;-74
2023/07/03 04:01:32;;;;;;;;;;;;;;;22.99;30.26;97381.91;4887524;29;1546;-75
2023/07/03 04:03:57;;;;;;;;;;;;;;;22.63;30.74;97386.97;4881901;29;1118;-74
2023/07/03 04:06:23;;;;;;;;;;;;;;;22.75;30.62;97376.00;4882349;29;868;-75
2023/07/03 04:08:48;;;;;;;;;;;;;;;22.91;29.98;97383.47;4885100;29;1118;-74
2023/07/03 04:11:14;;;;;;;;;;;;;;;23.05;29.99;97385.69;4882544;29;1118;-74
2023/07/03 04:13:39;;;;;;;;;;;;;;;22.97;30.22;97387.25;4881703;29;888;-74
2023/07/03 04:16:05;;;;;;;;;;;;;;;22.97;30.28;97384.44;4882252;29;898;-74
2023/07/03 04:18:30;;;;;;;;;;;;;;;22.68;30.85;97394.06;4881468;29;1910;-74
2023/07/03 04:20:56;;;;;;;;;;;;;;;22.86;30.66;97388.47;4881852;29;825;-74
2023/07/03 04:23:22;;;;;;;;;;;;;;;22.85;30.60;97389.72;4882102;29;839;-75
2023/07/03 04:25:48;;;;;;;;;;;;;;;22.75;30.51;97396.63;4881845;29;828;-74
2023/07/03 04:28:15;;;;;;;;;;;;;;;22.83;30.68;97389.41;4881518;29;923;-74
2023/07/03 04:30:40;;;;;;;;;;;;;;;22.74;30.82;97397.91;4883537;29;2011;-74
2023/07/03 04:33:06;;;;;;;;;;;;;;;22.85;30.33;97398.25;4903500;29;1224;-74
2023/07/03 04:35:31;;;;;;;;;;;;;;;22.62;30.84;97396.72;4903041;29;1000;-75
2023/07/03 04:37:57;;;;;;;;;;;;;;;22.75;30.56;97399.47;4928096;29;1624;-76
2023/07/03 04:40:22;;;;;;;;;;;;;;;22.81;30.42;97411.78;4938335;29;1918;-76
2023/07/03 04:42:48;;;;;;;;;;;;;;;22.95;30.27;97409.63;4937612;29;1511;-76
2023/07/03 04:45:15;;;;;;;;;;;;;;;22.66;30.83;97412.81;4906360;29;788;-75
2023/07/03 04:47:41;;;;;;;;;;;;;;;22.67;30.89;97415.19;4928530;28;877;-76
2023/07/03 04:50:08;;;;;;;;;;;;;;;22.74;30.92;97420.59;4980577;28;974;-76
2023/07/03 04:52:36;;;;;;;;;;;;;;;22.60;31.14;97421.16;4964915;28;1762;-75
2023/07/03 04:55:02;;;;;;;;;;;;;;;22.69;30.74;97421.19;4980150;28;905;-75
2023/07/03 04:57:28;;;;;;;;;;;;;;;22.80;30.81;97430.06;4964733;28;1055;-75
2023/07/03 04:59:55;;;;;;;;;;;;;;;22.74;30.86;97428.28;4980484;28;1910;-75
2023/07/03 05:02:21;;;;;;;;;;;;;;;23.06;30.46;97435.53;4964630;28;1273;-75
2023/07/03 05:04:46;;;;;;;;;;;;;;;22.85;30.83;97437.16;4980028;28;911;-75
2023/07/03 05:07:12;;;;;;;;;;;;;;;22.99;30.33;97438.66;4980826;28;881;-75
2023/07/03 05:09:38;;;;;;;;;;;;;;;22.79;30.88;97439.81;4980034;28;757;-75
2023/07/03 05:12:03;;;;;;;;;;;;;;;22.73;30.80;97438.03;4956707;29;922;-75
2023/07/03 05:14:29;;;;;;;;;;;;;;;22.81;30.76;97442.97;4956821;29;974;-75
2023/07/03 05:16:54;;;;;;;;;;;;;;;23.02;30.53;97449.06;4940888;29;919;-75
2023/07/03 05:19:21;;;;;;;;;;;;;;;22.80;30.97;97441.41;4956594;29;1997;-75
2023/07/03 05:21:46;;;;;;;;;;;;;;;22.88;30.93;97448.38;4941034;29;1108;-75
2023/07/03 05:24:12;;;;;;;;;;;;;;;22.71;31.17;97449.88;4925129;29;962;-75
2023/07/03 05:26:37;;;;;;;;;;;;;;;22.65;31.02;97451.72;4955983;29;1776;-76
2023/07/03 05:29:03;;;;;;;;;;;;;;;22.74;31.20;97454.63;4920984;29;1305;-76
2023/07/03 05:31:28;;;;;;;;;;;;;;;22.81;31.07;97448.66;4937665;29;984;-74
2023/07/03 05:33:54;;;;;;;;;;;;;;;22.74;31.37;97453.81;4918219;29;1049;-76
2023/07/03 05:36:19;;;;;;;;;;;;;;;22.98;30.93;97462.59;4919049;29;891;-75
2023/07/03 05:38:45;;;;;;;;;;;;;;;23.12;30.71;97456.34;4880704;29;1978;-75
2023/07/03 05:41:10;;;;;;;;;;;;;;;23.18;30.39;97460.16;4881024;29;1158;-76
2023/07/03 05:43:36;;;;;;;;;;;;;;;23.03;30.45;97462.78;4894314;29;815;-75
2023/07/03 05:46:01;;;;;;;;;;;;;;;22.88;31.12;97468.25;4899679;29;900;-75
2023/07/03 05:48:27;;;;;;;;;;;;;;;23.01;30.85;97467.34;4884152;29;1069;-75
2023/07/03 05:50:53;;;;;;;;;;;;;;;23.09;30.36;97468.63;4899764;29;1033;-75
2023/07/03 05:53:18;;;;;;;;;;;;;;;23.18;30.06;97470.72;4883713;29;847;-75
2023/07/03 05:55:52;;;;;;;;;;;;;;;22.94;30.68;97470.47;4899883;29;905;-75
2023/07/03 05:58:17;;;;;;;;;;;;;;;23.14;30.11;97476.53;4899179;29;1981;-76
2023/07/03 06:00:43;;;;;;;;;;;;;;;22.83;30.73;97477.31;4862382;29;1127;-76
2023/07/03 06:03:11;;;;;;;;;;;;;;;23.02;30.63;97483.13;4862070;29;902;-75
2023/07/03 06:05:36;;;;;;;;;;;;;;;22.92;30.65;97487.19;4865096;29;956;-77
2023/07/03 06:08:02;;;;;;;;;;;;;;;22.79;31.22;97485.19;4880726;29;697;-75
2023/07/03 06:10:27;;;;;;;;;;;;;;;22.94;30.89;97488.28;4870718;29;1151;-75
2023/07/03 06:12:53;;;;;;;;;;;;;;;22.86;31.14;97489.81;4914155;29;888;-75
2023/07/03 06:15:18;;;;;;;;;;;;;;;22.97;30.94;97490.19;4890015;29;955;-75
2023/07/03 06:17:44;;;;;;;;;;;;;;;22.95;30.63;97491.91;4868587;29;1265;-75
2023/07/03 06:20:10;;;;;;;;;;;;;;;22.87;30.80;97497.84;4883954;29;1981;-75
2023/07/03 06:22:36;;;;;;;;;;;;;;;22.97;30.53;97495.88;4853191;29;943;-75
2023/07/03 06:25:02;;;;;;;;;;;;;;;23.14;30.64;97493.56;4846580;29;875;-75
2023/07/03 06:27:27;;;;;;;;;;;;;;;22.75;31.19;97484.56;4847285;29;932;-75
2023/07/03 06:29:53;;;;;;;;;;;;;;;22.91;30.96;97488.44;4831196;29;808;-75
2023/07/03 06:32:18;;;;;;;;;;;;;;;22.81;31.09;97496.09;4847118;29;939;-75
2023/07/03 06:34:44;;;;;;;;;;;;;;;23.01;30.58;97492.91;4830823;29;1225;-75
2023/07/03 06:37:09;;;;;;;;;;;;;;;23.09;30.46;97502.69;4849129;29;802;-76
2023/07/03 06:39:37;;;;;;;;;;;;;;;22.96;30.88;97493.50;4864928;29;1927;-76
2023/07/03 06:42:03;;;;;;;;;;;;;;;23.11;30.84;97494.50;4865278;29;959;-76
2023/07/03 06:44:28;;;;;;;;;;;;;;;22.96;30.96;97493.50;4865055;29;1448;-76
2023/07/03 06:46:54;;;;;;;;;;;;;;;22.73;31.34;97498.38;4864825;29;841;-76
2023/07/03 06:49:22;;;;;;;;;;;;;;;22.97;30.94;97500.75;4864827;29;976;-76
2023/07/03 06:51:48;;;;;;;;;;;;;;;22.90;31.16;97493.31;4865419;29;955;-76
2023/07/03 06:54:14;;;;;;;;;;;;;;;23.11;30.97;97495.28;4871118;29;834;-75
2023/07/03 06:56:39;;;;;;;;;;;;;;;23.16;30.48;97502.41;4969526;28;1778;-75
2023/07/03 06:59:05;;;;;;;;;;;;;;;23.21;30.44;97496.13;4976403;28;1910;-76
2023/07/03 07:01:30;;;;;;;;;;;;;;;23.11;30.97;97505.84;4982964;28;983;-76
2023/07/03 07:03:56;;;;;;;;;;;;;;;22.79;31.28;97510.72;4999899;28;829;-75
2023/07/03 07:06:22;;;;;;;;;;;;;;;22.98;31.02;97513.69;4999948;28;875;-76
2023/07/03 07:08:48;;;;;;;;;;;;;;;23.08;30.66;97521.75;4966397;28;1186;-75
2023/07/03 07:11:20;;;;;;;;;;;;;;;23.14;30.77;97527.59;4966639;28;1125;-76
2023/07/03 07:13:47;;;;;;;;;;;;;;;22.89;31.08;97528.59;4981261;28;1788;-76
2023/07/03 07:16:19;;;;;;;;;;;;;;;23.11;30.39;97531.41;4982506;28;956;-75
2023/07/03 07:18:45;;;;;;;;;;;;;;;22.73;31.06;97532.44;4982096;28;2030;-75
2023/07/03 07:21:11;;;;;;;;;;;;;;;22.95;30.52;97534.44;4974798;28;1744;-76
2023/07/03 07:23:36;;;;;;;;;;;;;;;23.27;30.11;97536.81;4979568;28;869;-75
2023/07/03 07:26:02;;;;;;;;;;;;;;;23.05;30.31;97542.56;4958853;29;1311;-75
2023/07/03 07:28:27;;;;;;;;;;;;;;;22.94;30.45;97544.22;4926346;29;1150;-75
2023/07/03 07:30:53;;;;;;;;;;;;;;;22.87;30.63;97543.22;4936364;28;1211;-76
2023/07/03 07:33:20;;;;;;;;;;;;;;;22.84;30.40;97543.34;4945200;28;1042;-76
2023/07/03 07:35:46;;;;;;;;;;;;;;;22.82;30.68;97535.31;4962070;28;928;-75
2023/07/03 07:38:11;;;;;;;;;;;;;;;22.88;30.28;97549.72;4961352;28;712;-76
2023/07/03 07:40:37;;;;;;;;;;;;;;;22.96;30.25;97544.56;4961390;28;1907;-76
2023/07/03 07:43:03;;;;;;;;;;;;;;;22.70;30.50;97552.44;4954625;28;1767;-76
2023/07/03 07:45:30;;;;;;;;;;;;;;;22.78;30.42;97548.84;4938881;29;987;-76
2023/07/03 07:47:55;;;;;;;;;;;;;;;22.99;30.09;97549.31;4922973;29;963;-76
2023/07/03 07:50:21;;;;;;;;;;;;;;;23.14;29.69;97556.78;4938857;29;1089;-76
2023/07/03 07:52:47;;;;;;;;;;;;;;;23.00;29.94;97550.88;4934302;29;1800;-75
2023/07/03 07:55:12;;;;;;;;;;;;;;;22.97;30.07;97563.16;4925219;29;1670;-76
2023/07/03 07:57:38;;;;;;;;;;;;;;;23.08;29.72;97552.97;4917866;29;1824;-75
2023/07/03 08:00:04;;;;;;;;;;;;;;;23.09;29.64;97570.78;4922764;29;1906;-76
2023/07/03 08:02:37;;;;;;;;;;;;;;;23.09;29.71;97565.13;4938706;29;1057;-75
2023/07/03 08:05:02;;;;;;;;;;;;;;;23.10;29.52;97566.69;4921881;29;1013;-75
2023/07/03 08:07:28;;;;;;;;;;;;;;;23.11;29.52;97571.13;4903971;29;744;-77
2023/07/03 08:09:53;;;;;;;;;;;;;;;22.83;30.15;97570.94;4909228;29;1218;-75
2023/07/03 08:12:19;;;;;;;;;;;;;;;22.92;29.83;97577.97;4888493;29;943;-76
2023/07/03 08:14:44;;;;;;;;;;;;;;;23.01;29.67;97575.97;4919208;29;796;-75
2023/07/03 08:17:10;;;;;;;;;;;;;;;23.00;29.56;97576.41;4918426;29;1075;-75
2023/07/03 08:19:36;;;;;;;;;;;;;;;22.80;30.03;97571.88;4937921;29;2006;-75
2023/07/03 08:22:01;;;;;;;;;;;;;;;22.90;29.87;97574.78;4922523;29;1031;-76
2023/07/03 08:24:28;;;;;;;;;;;;;;;22.93;29.66;97579.53;4938508;29;992;-76
2023/07/03 08:26:54;;;;;;;;;;;;;;;22.94;29.64;97569.75;4923169;29;969;-76
2023/07/03 08:29:20;;;;;;;;;;;;;;;23.12;29.56;97564.19;4922782;29;1298;-76
2023/07/03 08:31:45;;;;;;;;;;;;;;;22.96;29.78;97573.72;4938454;29;851;-76
2023/07/03 08:34:11;;;;;;;;;;;;;;;23.04;29.50;97574.22;4937981;29;1036;-76
2023/07/03 08:36:36;;;;;;;;;;;;;;;22.85;29.82;97585.47;4938093;29;925;-77
2023/07/03 08:39:02;;;;;;;;;;;;;;;22.84;29.61;97583.84;4922660;29;1977;-75
2023/07/03 08:41:28;;;;;;;;;;;;;;;22.95;29.48;97582.69;4956877;28;901;-76
2023/07/03 08:43:55;;;;;;;;;;;;;;;22.80;29.58;97588.91;4961702;28;779;-75
2023/07/03 08:46:22;;;;;;;;;;;;;;;22.83;29.62;97596.47;4961695;28;1105;-76
2023/07/03 08:48:48;;;;;;;;;;;;;;;22.81;29.79;97618.84;4963159;28;1342;-76
2023/07/03 08:51:15;;;;;;;;;;;;;;;23.01;29.40;97617.75;4978096;28;808;-77
2023/07/03 08:53:41;;;;;;;;;;;;;;;22.74;29.56;97630.47;4971656;28;1751;-76
2023/07/03 08:56:07;;;;;;;;;;;;;;;22.80;29.57;97651.31;4961776;28;811;-77
2023/07/03 08:58:32;;;;;;;;;;;;;;;22.91;29.27;97656.59;4976732;28;1910;-76
2023/07/03 09:01:20;;;;;;;;;;;;;;;22.91;29.43;97639.59;4922404;29;1812;-77
2023/07/03 09:03:46;;;;;;;;;;;;;;;22.85;29.47;97641.41;4903008;29;807;-76
2023/07/03 09:06:20;;;;;;;;;;;;;;;22.78;29.65;97636.78;4919369;29;957;-76
2023/07/03 09:08:46;;;;;;;;;;;;;;;23.05;28.93;97633.38;4905732;29;1773;-76
2023/07/03 09:11:11;;;;;;;;;;;;;;;22.97;29.15;97631.25;4938423;29;832;-77
2023/07/03 09:13:41;;;;;;;;;;;;;;;22.72;29.30;97623.66;4937832;29;787;-76
2023/07/03 09:16:22;;;;;;;;;;;;;;;22.80;29.33;97617.25;4938744;29;807;-76
2023/07/03 09:18:56;;;;;;;;;;;;;;;22.70;29.39;97612.78;4937998;29;1914;-77
2023/07/03 09:21:22;;;;;;;;;;;;;;;22.70;29.34;97612.78;4938411;29;1863;-77
2023/07/03 09:24:05;;;;;;;;;;;;;;;22.73;29.44;97605.38;4922400;29;1371;-77
2023/07/03 09:26:33;;;;;;;;;;;;;;;22.81;28.94;97598.97;4887705;29;1088;-77
2023/07/03 09:28:59;;;;;;;;;;;;;;;23.01;28.49;97592.19;4903310;29;834;-76
2023/07/03 09:31:26;;;;;;;;;;;;;;;22.85;28.91;97584.69;4914131;29;1278;-76
2023/07/03 09:33:52;;;;;;;;;;;;;;;22.88;28.80;97578.88;4902512;29;1325;-77
2023/07/03 09:36:25;;;;;;;;;;;;;;;22.70;29.19;97578.75;4903318;29;1433;-77
2023/07/03 09:38:50;;;;;;;;;;;;;;;22.81;28.96;97579.13;4918426;29;1923;-77
2023/07/03 09:41:26;;;;;;;;;;;;;;;22.75;28.82;97569.66;4903379;29;887;-77
2023/07/03 09:43:52;;;;;;;;;;;;;;;22.71;28.88;97568.19;4902830;29;1114;-77
2023/07/03 09:46:19;;;;;;;;;;;;;;;22.85;28.79;97576.94;4918692;29;1000;-77
2023/07/03 09:48:45;;;;;;;;;;;;;;;23.00;28.46;97573.56;4865857;29;976;-77
2023/07/03 09:51:19;;;;;;;;;;;;;;;22.79;28.93;97570.28;4867000;29;1220;-77
2023/07/03 09:53:45;;;;;;;;;;;;;;;22.84;28.92;97578.19;4881567;29;994;-76
2023/07/03 09:56:11;;;;;;;;;;;;;;;22.96;28.48;97584.28;4881961;29;952;-77
2023/07/03 09:58:38;;;;;;;;;;;;;;;23.06;28.46;97583.88;4865747;29;1923;-77
2023/07/03 10:01:04;;;;;;;;;;;;;;;22.68;28.86;97595.41;4866149;29;1191;-77
2023/07/03 10:03:30;;;;;;;;;;;;;;;23.07;28.84;97596.00;4884529;29;1324;-77
2023/07/03 10:05:56;;;;;;;;;;;;;;;22.88;28.78;97598.72;4902647;29;941;-77
2023/07/03 10:08:23;;;;;;;;;;;;;;;22.68;29.35;97598.25;4887715;29;1216;-76
2023/07/03 10:10:49;;;;;;;;;;;;;;;22.77;29.45;97598.31;4887854;29;848;-77
2023/07/03 10:13:17;;;;;;;;;;;;;;;22.60;29.36;97602.63;4887801;29;792;-76
2023/07/03 10:15:42;;;;;;;;;;;;;;;22.80;29.21;97610.81;4889830;29;1223;-76
2023/07/03 10:18:13;;;;;;;;;;;;;;;22.79;29.35;97621.34;4884122;29;1028;-77
2023/07/03 10:20:42;;;;;;;;;;;;;;;22.74;29.40;97627.63;4900803;29;1982;-77
2023/07/03 10:23:08;;;;;;;;;;;;;;;22.67;30.12;97621.41;4903131;29;829;-77
2023/07/03 10:25:36;;;;;;;;;;;;;;;22.78;29.67;97618.97;4902945;29;819;-77
2023/07/03 10:28:06;;;;;;;;;;;;;;;22.85;29.40;97618.72;4887196;29;1123;-75
2023/07/03 10:30:32;;;;;;;;;;;;;;;22.68;29.99;97614.47;4883685;29;1086;-74
2023/07/03 10:32:58;;;;;;;;;;;;;;;22.76;29.83;97605.25;4853042;29;1273;-74
2023/07/03 10:35:27;;;;;;;;;;;;;;;22.86;29.39;97609.72;4883999;29;822;-75
2023/07/03 10:37:55;;;;;;;;;;;;;;;23.00;29.28;97608.44;4847014;29;1118;-75
2023/07/03 10:40:22;;;;;;;;;;;;;;;22.80;29.63;97610.81;4857093;29;1907;-75
2023/07/03 10:42:51;;;;;;;;;;;;;;;22.71;29.75;97605.84;4883876;29;1011;-74
2023/07/03 10:45:17;;;;;;;;;;;;;;;22.60;29.82;97602.63;4865037;29;919;-75
2023/07/03 10:47:50;;;;;;;;;;;;;;;22.83;29.41;97599.31;4850076;29;1331;-74
2023/07/03 10:50:18;;;;;;;;;;;;;;;23.00;29.13;97602.75;4904552;29;1162;-74
2023/07/03 10:52:54;;;;;;;;;;;;;;;22.79;29.41;97592.97;4921378;29;952;-74
2023/07/03 10:55:19;;;;;;;;;;;;;;;22.75;29.51;97592.34;4921235;29;1193;-74
2023/07/03 10:57:51;;;;;;;;;;;;;;;22.86;29.07;97592.72;4901657;29;937;-74
2023/07/03 11:00:18;;;;;;;;;;;;;;;22.90;29.23;97591.78;4902024;29;1914;-74
2023/07/03 11:02:53;;;;;;;;;;;;;;;22.76;29.24;97593.91;4902257;29;848;-74
2023/07/03 11:05:22;;;;;;;;;;;;;;;22.84;29.22;97600.88;4886491;29;1401;-74
2023/07/03 11:07:47;;;;;;;;;;;;;;;22.91;29.32;97599.88;4902983;29;826;-74
2023/07/03 11:10:13;;;;;;;;;;;;;;;23.15;28.69;97602.97;4921501;29;970;-74
2023/07/03 11:12:51;;;;;;;;;;;;;;;23.24;28.46;97605.06;4921245;29;853;-76
2023/07/03 11:15:20;;;;;;;;;;;;;;;23.04;28.99;97608.28;4922708;29;803;-74
2023/07/03 11:18:04;;;;;;;;;;;;;;;23.06;28.86;97605.78;4939798;29;825;-75
2023/07/03 11:20:31;;;;;;;;;;;;;;;23.03;29.08;97609.53;4940032;29;1910;-75
2023/07/03 11:23:05;;;;;;;;;;;;;;;23.19;28.88;97606.47;4939812;29;807;-75
2023/07/03 11:25:39;;;;;;;;;;;;;;;22.86;29.37;97604.06;4940130;29;807;-74
2023/07/03 11:28:07;;;;;;;;;;;;;;;22.94;29.45;97592.47;4923676;29;1321;-74
2023/07/03 11:30:32;;;;;;;;;;;;;;;22.79;29.53;97587.28;4939512;29;970;-75
2023/07/03 11:32:59;;;;;;;;;;;;;;;22.69;29.52;97593.38;4937391;29;1686;-75
2023/07/03 11:35:25;;;;;;;;;;;;;;;22.92;29.21;97592.16;4929782;28;1635;-75
2023/07/03 11:38:09;;;;;;;;;;;;;;;22.81;29.35;97595.34;4946138;28;847;-74
2023/07/03 11:40:38;;;;;;;;;;;;;;;22.75;29.65;97603.69;4977804;28;1910;-75
2023/07/03 11:43:23;;;;;;;;;;;;;;;22.77;29.50;97601.16;4945620;28;1227;-74
2023/07/03 11:45:57;;;;;;;;;;;;;;;22.91;29.25;97604.75;4977871;28;1027;-74
2023/07/03 11:48:27;;;;;;;;;;;;;;;22.91;29.14;97621.78;4977490;28;946;-74
2023/07/03 11:50:56;;;;;;;;;;;;;;;22.95;29.10;97609.03;4961856;28;928;-74
2023/07/03 11:53:34;;;;;;;;;;;;;;;22.84;29.36;97612.22;4961147;28;962;-74
2023/07/03 11:55:59;;;;;;;;;;;;;;;22.91;28.95;97616.88;4977632;28;756;-75
2023/07/03 11:58:25;;;;;;;;;;;;;;;23.12;28.79;97620.94;4948826;28;1981;-74
2023/07/03 12:01:10;;;;;;;;;;;;;;;22.77;29.50;97609.66;4981975;28;862;-75
2023/07/03 12:03:48;;;;;;;;;;;;;;;22.61;29.58;97609.88;4981438;28;1125;-75
2023/07/03 12:06:34;;;;;;;;;;;;;;;22.77;29.70;97606.84;4942226;29;1228;-75
2023/07/03 12:09:29;;;;;;;;;;;;;;;22.83;29.39;97593.63;4942087;28;918;-74
2023/07/03 12:12:04;;;;;;;;;;;;;;;22.86;29.48;97604.06;4896156;29;1752;-75
2023/07/03 12:17:16;;;;;;;;;;;;;;;22.74;29.43;97590.75;4882286;29;917;-74
2023/07/03 12:19:41;;;;;;;;;;;;;;;22.71;29.77;97594.50;4886422;29;1994;-75
2023/07/03 12:22:07;;;;;;;;;;;;;;;22.88;29.50;97584.53;4900630;29;855;-75
2023/07/03 12:24:32;;;;;;;;;;;;;;;22.92;29.13;97594.97;4900570;29;1256;-74
2023/07/03 12:27:04;;;;;;;;;;;;;;;22.86;29.47;97587.03;4900423;29;914;-75
2023/07/03 12:29:30;;;;;;;;;;;;;;;22.84;29.58;97592.38;4900715;29;1420;-75
2023/07/03 12:31:56;;;;;;;;;;;;;;;22.90;29.50;97580.44;4900543;29;985;-75
2023/07/03 12:34:26;;;;;;;;;;;;;;;22.97;29.43;97585.88;4884806;29;1232;-75
2023/07/03 12:36:51;;;;;;;;;;;;;;;22.63;29.89;97579.00;4913928;29;933;-75
2023/07/03 12:39:17;;;;;;;;;;;;;;;22.61;29.94;97575.84;4922693;29;1892;-75
2023/07/03 12:41:43;;;;;;;;;;;;;;;22.49;30.20;97580.34;4921016;29;1706;-76
2023/07/03 12:44:08;;;;;;;;;;;;;;;22.75;29.59;97574.53;4922090;29;906;-75
2023/07/03 12:46:35;;;;;;;;;;;;;;;22.92;29.40;97577.97;4922139;29;989;-75
2023/07/03 12:49:10;;;;;;;;;;;;;;;22.83;29.55;97572.97;4953581;28;913;-75
2023/07/03 12:51:54;;;;;;;;;;;;;;;22.79;29.87;97573.09;4978573;28;830;-75
2023/07/03 12:54:20;;;;;;;;;;;;;;;22.72;29.72;97569.78;4918715;29;910;-75
2023/07/03 12:56:46;;;;;;;;;;;;;;;22.91;29.50;97570.72;4888314;29;1374;-75
2023/07/03 12:59:14;;;;;;;;;;;;;;;22.79;29.76;97569.47;4919018;29;2112;-75
2023/07/03 13:01:40;;;;;;;;;;;;;;;22.94;29.18;97570.56;4919609;29;803;-75
2023/07/03 13:04:06;;;;;;;;;;;;;;;22.95;29.23;97571.34;4903091;29;826;-75
2023/07/03 13:06:31;;;;;;;;;;;;;;;23.03;29.09;97572.66;4887876;29;1228;-75